createdAt,value
2017-07-08T00:00:54.136Z,99.90
2017-07-08T00:03:21.890Z,99.90
2017-07-08T00:05:49.717Z,99.90
2017-07-08T00:08:17.465Z,99.90
2017-07-08T00:10:45.223Z,99.90
2017-07-08T00:13:13.008Z,99.90
2017-07-08T00:15:40.775Z,99.90
2017-07-08T00:18:08.761Z,99.90
2017-07-08T00:20:36.504Z,99.90
2017-07-08T00:23:04.272Z,99.90
2017-07-08T00:25:32.053Z,99.90
2017-07-08T00:27:59.855Z,99.90
2017-07-08T00:30:27.661Z,99.90
2017-07-08T00:32:55.404Z,99.90
2017-07-08T00:35:23.146Z,99.90
2017-07-08T00:37:50.921Z,99.90
2017-07-08T00:40:18.659Z,99.90
2017-07-08T00:42:46.991Z,99.90
2017-07-08T00:45:14.745Z,99.90
2017-07-08T00:47:42.490Z,99.90
2017-07-08T00:50:10.269Z,99.90
2017-07-08T00:52:38.011Z,99.90
2017-07-08T00:55:05.816Z,99.90
2017-07-08T00:57:34.335Z,99.90
2017-07-08T01:00:02.079Z,99.90
2017-07-08T01:02:29.864Z,99.90
2017-07-08T01:04:57.617Z,99.90
2017-07-08T01:07:25.425Z,99.90
2017-07-08T01:09:53.167Z,99.90
2017-07-08T01:12:20.919Z,99.90
2017-07-08T01:14:48.689Z,99.90
2017-07-08T01:17:16.445Z,99.90
2017-07-08T01:19:44.269Z,99.90
2017-07-08T01:22:12.019Z,99.90
2017-07-08T01:24:40.544Z,99.90
2017-07-08T01:27:08.329Z,99.90
2017-07-08T01:29:36.067Z,99.90
2017-07-08T01:32:03.883Z,99.90
2017-07-08T01:34:32.403Z,99.90
2017-07-08T01:37:00.157Z,99.90
2017-07-08T01:39:27.935Z,99.90
2017-07-08T01:41:55.678Z,99.90
2017-07-08T01:44:23.887Z,99.90
2017-07-08T01:46:51.647Z,99.90
2017-07-08T01:49:19.402Z,99.90
2017-07-08T01:51:47.201Z,99.90
2017-07-08T01:54:15.732Z,99.90
2017-07-08T01:56:43.545Z,99.90
2017-07-08T01:59:12.068Z,99.90
2017-07-08T02:01:39.821Z,99.90
2017-07-08T02:04:07.625Z,99.90
2017-07-08T02:06:35.382Z,99.90
2017-07-08T02:09:03.198Z,99.90
2017-07-08T02:11:30.942Z,99.90
2017-07-08T02:13:58.694Z,99.90
2017-07-08T02:16:27.261Z,99.90
2017-07-08T02:18:55.810Z,99.90
2017-07-08T02:21:24.506Z,99.90
2017-07-08T02:23:52.266Z,99.90
2017-07-08T02:26:20.029Z,99.90
2017-07-08T02:28:47.812Z,99.90
2017-07-08T02:31:16.333Z,99.90
2017-07-08T02:33:44.137Z,99.90
2017-07-08T02:36:11.874Z,99.90
2017-07-08T02:38:39.625Z,99.90
2017-07-08T02:41:07.397Z,99.90
2017-07-08T02:43:35.136Z,99.90
2017-07-08T02:46:02.934Z,99.90
2017-07-08T02:48:30.671Z,99.90
2017-07-08T02:50:58.425Z,99.90
2017-07-08T02:53:26.195Z,99.90
2017-07-08T02:55:53.926Z,99.90
2017-07-08T02:58:21.771Z,99.90
2017-07-08T03:00:50.280Z,99.90
2017-07-08T03:03:18.048Z,99.90
2017-07-08T03:05:45.819Z,99.90
2017-07-08T03:08:13.648Z,99.90
2017-07-08T03:10:42.206Z,99.90
2017-07-08T03:13:09.955Z,99.90
2017-07-08T03:15:37.713Z,99.90
2017-07-08T03:18:05.488Z,99.90
2017-07-08T03:20:33.239Z,99.90
2017-07-08T03:23:01.030Z,99.90
2017-07-08T03:25:29.550Z,99.90
2017-07-08T03:27:57.304Z,99.90
2017-07-08T03:30:25.078Z,99.90
2017-07-08T03:32:52.847Z,99.90
2017-07-08T03:35:20.638Z,99.90
2017-07-08T03:37:48.380Z,99.90
2017-07-08T03:40:16.140Z,99.90
2017-07-08T03:42:43.916Z,99.90
2017-07-08T03:45:11.681Z,99.90
2017-07-08T03:47:39.480Z,99.90
2017-07-08T03:50:07.222Z,99.90
2017-07-08T03:52:35.736Z,99.90
2017-07-08T03:55:03.516Z,99.90
2017-07-08T03:57:31.263Z,99.90
2017-07-08T03:59:59.067Z,99.90
2017-07-08T04:02:26.818Z,99.90
2017-07-08T04:04:54.562Z,99.90
2017-07-08T04:07:22.331Z,99.90
2017-07-08T04:09:50.098Z,99.90
2017-07-08T04:12:17.904Z,99.90
2017-07-08T04:14:45.644Z,99.90
2017-07-08T04:17:13.393Z,99.90
2017-07-08T04:19:41.171Z,99.90
2017-07-08T04:22:09.694Z,99.90
2017-07-08T04:24:37.492Z,99.90
2017-07-08T04:27:05.239Z,99.90
2017-07-08T04:29:32.983Z,99.90
2017-07-08T04:32:00.770Z,99.90
2017-07-08T04:34:28.507Z,99.90
2017-07-08T04:36:56.313Z,99.90
2017-07-08T04:39:24.073Z,99.90
2017-07-08T04:41:51.813Z,99.90
2017-07-08T04:44:19.598Z,99.90
2017-07-08T04:46:48.131Z,99.90
2017-07-08T04:49:15.945Z,99.90
2017-07-08T04:51:44.463Z,99.90
2017-07-08T04:54:12.211Z,99.90
2017-07-08T04:56:39.986Z,99.90
2017-07-08T04:59:07.727Z,99.90
2017-07-08T05:01:35.532Z,99.90
2017-07-08T05:04:03.292Z,99.90
2017-07-08T05:06:31.025Z,99.90
2017-07-08T05:08:58.796Z,99.90
2017-07-08T05:11:26.546Z,99.90
2017-07-08T05:13:54.669Z,99.90
2017-07-08T05:16:22.415Z,99.90
2017-07-08T05:18:50.168Z,99.90
2017-07-08T05:21:17.978Z,99.90
2017-07-08T05:23:46.495Z,99.90
2017-07-08T05:26:14.306Z,99.90
2017-07-08T05:28:42.056Z,99.90
2017-07-08T05:31:09.816Z,99.90
2017-07-08T05:33:37.616Z,99.90
2017-07-08T05:36:05.374Z,99.90
2017-07-08T05:38:33.215Z,99.90
2017-07-08T05:41:01.751Z,99.90
2017-07-08T05:43:29.499Z,99.90
2017-07-08T05:45:57.279Z,99.90
2017-07-08T05:48:25.056Z,99.90
2017-07-08T05:50:52.861Z,99.90
2017-07-08T05:53:20.619Z,99.90
2017-07-08T05:55:49.168Z,99.90
2017-07-08T05:58:16.957Z,99.90
2017-07-08T06:00:45.479Z,99.90
2017-07-08T06:03:13.306Z,99.90
2017-07-08T06:05:41.817Z,99.90
2017-07-08T06:08:09.565Z,99.90
2017-07-08T06:10:37.341Z,99.90
2017-07-08T06:13:05.084Z,97.50
2017-07-08T06:15:32.888Z,97.50
2017-07-08T06:18:01.442Z,78.70
2017-07-08T06:20:31.552Z,78.60
2017-07-08T06:23:01.625Z,77.40
2017-07-08T06:33:06.470Z,74.50
2017-07-08T06:35:34.257Z,71.00
2017-07-08T06:38:04.063Z,52.20
2017-07-08T06:40:31.933Z,52.00
2017-07-08T06:43:00.445Z,42.30
2017-07-08T06:45:28.259Z,42.10
2017-07-08T06:47:56.042Z,40.30
2017-07-08T06:50:23.863Z,36.60
2017-07-08T06:52:51.639Z,34.70
2017-07-08T06:55:19.398Z,34.30
2017-07-08T06:57:47.200Z,32.40
2017-07-08T07:00:16.150Z,28.30
2017-07-08T07:02:43.885Z,28.40
2017-07-08T07:05:11.679Z,28.80
2017-07-08T07:07:39.418Z,27.20
2017-07-08T07:10:07.216Z,26.80
2017-07-08T07:12:35.729Z,26.60
2017-07-08T07:15:03.468Z,26.60
2017-07-08T07:17:32.018Z,27.80
2017-07-08T07:19:59.761Z,27.80
2017-07-08T07:22:28.155Z,28.00
2017-07-08T07:24:56.188Z,28.20
2017-07-08T07:27:23.954Z,27.40
2017-07-08T07:29:52.469Z,26.80
2017-07-08T07:32:20.233Z,25.70
2017-07-08T07:34:48.027Z,26.70
2017-07-08T07:37:15.775Z,26.80
2017-07-08T07:39:45.556Z,29.20
2017-07-08T07:42:13.355Z,29.40
2017-07-08T07:44:41.282Z,34.50
2017-07-08T07:47:09.657Z,35.40
2017-07-08T07:49:38.010Z,32.70
2017-07-08T07:52:12.664Z,30.90
2017-07-08T07:54:41.882Z,30.80
2017-07-08T07:57:10.532Z,27.80
2017-07-08T07:59:38.805Z,27.70
2017-07-08T08:02:09.548Z,27.00
2017-07-08T08:04:37.358Z,26.60
2017-07-08T08:07:05.092Z,24.50
2017-07-08T08:09:33.705Z,24.00
2017-07-08T08:12:02.150Z,24.20
2017-07-08T08:14:30.671Z,23.80
2017-07-08T08:16:58.463Z,23.80
2017-07-08T08:19:26.267Z,26.30
2017-07-08T08:21:55.428Z,28.60
2017-07-08T08:24:23.308Z,30.40
2017-07-08T08:26:51.101Z,30.00
2017-07-08T08:29:20.697Z,30.20
2017-07-08T08:31:49.403Z,29.50
2017-07-08T08:34:19.152Z,29.00
2017-07-08T08:36:52.025Z,29.30
2017-07-08T08:39:24.599Z,29.30
2017-07-08T08:47:05.606Z,35.50
2017-07-08T08:49:36.546Z,38.00
2017-07-08T08:52:11.481Z,38.40
2017-07-08T08:54:40.879Z,37.90
2017-07-08T08:59:48.362Z,37.70
2017-07-08T09:02:19.122Z,40.50
2017-07-08T09:04:47.305Z,39.10
2017-07-08T09:07:17.057Z,37.40
2017-07-08T09:12:19.350Z,36.60
2017-07-08T09:14:47.131Z,38.20
2017-07-08T09:17:18.959Z,38.70
2017-07-08T09:24:55.063Z,42.40
2017-07-08T09:27:26.239Z,40.70
2017-07-08T09:30:00.471Z,40.30
2017-07-08T09:32:30.605Z,38.60
2017-07-08T09:35:00.985Z,35.80
2017-07-08T09:37:30.654Z,30.10
2017-07-08T09:39:59.307Z,30.10
2017-07-08T09:42:27.341Z,30.30
2017-07-08T09:44:58.472Z,29.50
2017-07-08T09:47:29.480Z,30.60
2017-07-08T09:50:02.591Z,32.20
2017-07-08T09:52:33.126Z,32.20
2017-07-08T09:55:02.837Z,33.00
2017-07-08T09:57:32.895Z,35.10
2017-07-08T10:00:01.938Z,35.30
2017-07-08T10:07:40.378Z,38.20
2017-07-08T10:10:10.570Z,38.10
2017-07-08T10:12:40.992Z,38.70
2017-07-08T10:15:11.690Z,38.70
2017-07-08T10:17:41.118Z,39.20
2017-07-08T10:20:15.740Z,39.70
2017-07-08T10:22:44.493Z,39.20
2017-07-08T10:25:15.157Z,35.70
2017-07-08T10:30:18.201Z,36.70
2017-07-08T10:32:48.475Z,35.10
2017-07-08T10:40:23.450Z,38.10
2017-07-08T10:42:52.117Z,38.10
2017-07-08T10:45:22.206Z,37.80
2017-07-08T10:47:55.415Z,37.10
2017-07-08T10:50:28.952Z,37.10
2017-07-08T10:53:02.097Z,36.50
2017-07-08T10:55:32.164Z,35.70
2017-07-08T10:58:03.043Z,35.70
2017-07-08T11:00:31.341Z,38.30
2017-07-08T11:02:59.401Z,37.40
2017-07-08T11:05:28.727Z,37.10
2017-07-08T11:07:58.916Z,37.60
2017-07-08T11:15:33.157Z,37.50
2017-07-08T11:18:01.844Z,37.30
2017-07-08T11:20:29.802Z,37.40
2017-07-08T11:22:58.551Z,38.20
2017-07-08T11:25:26.410Z,38.20
2017-07-08T11:27:54.290Z,39.50
2017-07-08T11:30:23.102Z,39.80
2017-07-08T11:32:51.007Z,39.60
2017-07-08T11:35:18.863Z,38.90
2017-07-08T11:37:46.811Z,39.20
2017-07-08T11:42:50.204Z,39.60
2017-07-08T11:47:56.389Z,38.20
2017-07-08T11:50:25.120Z,38.90
2017-07-08T11:52:53.420Z,39.70
2017-07-08T11:55:21.246Z,39.20
2017-07-08T11:57:49.064Z,41.60
2017-07-08T12:00:17.731Z,43.60
2017-07-08T12:02:46.471Z,42.90
2017-07-08T12:05:14.342Z,41.60
2017-07-08T12:07:42.916Z,41.00
2017-07-08T12:10:11.627Z,41.70
2017-07-08T12:12:39.420Z,42.60
2017-07-08T12:15:07.200Z,43.40
2017-07-08T12:17:35.749Z,47.50
2017-07-08T12:20:03.524Z,47.50
2017-07-08T12:22:31.268Z,49.40
2017-07-08T12:24:59.094Z,51.30
2017-07-08T12:27:26.867Z,53.50
2017-07-08T12:29:55.387Z,54.10
2017-07-08T12:32:23.209Z,56.60
2017-07-08T12:34:50.947Z,48.10
2017-07-08T12:37:18.801Z,47.60
2017-07-08T12:40:19.618Z,82.70
2017-07-08T12:42:48.698Z,99.90
2017-07-08T12:47:58.279Z,99.90
2017-07-08T12:50:28.341Z,99.90
2017-07-08T12:55:48.616Z,99.90
2017-07-08T12:58:18.020Z,99.90
2017-07-08T13:00:46.551Z,99.90
2017-07-08T13:03:14.312Z,99.90
2017-07-08T13:05:42.146Z,99.90
2017-07-08T13:08:09.897Z,99.90
2017-07-08T13:10:37.848Z,99.90
2017-07-08T13:13:05.616Z,99.90
2017-07-08T13:15:33.366Z,99.90
2017-07-08T13:18:01.138Z,99.90
2017-07-08T13:20:28.883Z,99.90
2017-07-08T13:22:56.681Z,99.90
2017-07-08T13:25:24.425Z,99.90
2017-07-08T13:27:52.200Z,99.90
2017-07-08T13:30:19.981Z,99.90
2017-07-08T13:32:49.955Z,99.90
2017-07-08T13:35:18.059Z,99.90
2017-07-08T13:37:47.946Z,99.90
2017-07-08T13:40:16.479Z,99.90
2017-07-08T13:42:45.938Z,99.90
2017-07-08T13:45:14.513Z,99.90
2017-07-08T13:47:44.857Z,99.70
2017-07-08T13:50:12.638Z,99.70
2017-07-08T13:52:40.391Z,99.90
2017-07-08T13:55:08.176Z,99.80
2017-07-08T13:57:36.705Z,98.80
2017-07-08T14:00:04.539Z,98.80
2017-07-08T14:02:32.301Z,99.20
2017-07-08T14:05:00.176Z,97.60
2017-07-08T14:07:27.956Z,97.70
2017-07-08T14:09:55.739Z,99.30
2017-07-08T14:12:24.447Z,97.80
2017-07-08T14:14:53.370Z,98.20
2017-07-08T14:17:21.143Z,98.20
2017-07-08T14:19:48.916Z,97.30
2017-07-08T14:22:16.657Z,97.30
2017-07-08T14:24:44.463Z,96.50
2017-07-08T14:27:12.182Z,96.20
2017-07-08T14:29:39.901Z,94.70
2017-07-08T14:32:07.660Z,94.80
2017-07-08T14:34:35.412Z,94.00
2017-07-08T14:37:03.293Z,94.70
2017-07-08T14:39:31.959Z,94.20
2017-07-08T14:41:59.694Z,94.20
2017-07-08T14:44:27.478Z,94.30
2017-07-08T14:46:55.220Z,93.90
2017-07-08T14:49:23.053Z,92.80
2017-07-08T14:51:50.808Z,94.70
2017-07-08T14:54:18.551Z,95.40
2017-07-08T14:56:47.115Z,95.70
2017-07-08T14:59:15.636Z,96.40
2017-07-08T15:01:43.904Z,96.40
2017-07-08T15:04:11.649Z,96.90
2017-07-08T15:06:39.407Z,97.50
2017-07-08T15:09:07.942Z,98.00
2017-07-08T15:11:35.674Z,97.90
2017-07-08T15:14:03.483Z,97.20
2017-07-08T15:16:32.061Z,95.20
2017-07-08T15:18:59.892Z,95.20
2017-07-08T15:21:27.701Z,93.60
2017-07-08T15:23:56.552Z,92.60
2017-07-08T15:26:25.364Z,92.50
2017-07-08T15:28:57.709Z,93.50
2017-07-08T15:31:26.403Z,92.40
2017-07-08T15:33:56.222Z,93.90
2017-07-08T15:36:23.980Z,91.40
2017-07-08T15:38:52.916Z,91.80
2017-07-08T15:41:20.737Z,91.90
2017-07-08T15:43:48.596Z,91.40
2017-07-08T15:46:16.351Z,89.60
2017-07-08T15:48:44.146Z,90.50
2017-07-08T15:51:12.304Z,90.30
2017-07-08T15:53:40.877Z,91.40
2017-07-08T15:56:09.548Z,90.70
2017-07-08T15:58:37.358Z,90.60
2017-07-08T16:01:05.479Z,90.10
2017-07-08T16:03:33.539Z,90.20
2017-07-08T16:06:01.424Z,90.20
2017-07-08T16:08:30.050Z,90.50
2017-07-08T16:10:57.994Z,90.50
2017-07-08T16:13:25.817Z,91.30
2017-07-08T16:15:54.409Z,91.70
2017-07-08T16:18:22.222Z,91.80
2017-07-08T16:20:50.035Z,91.50
2017-07-08T16:23:18.544Z,88.40
2017-07-08T16:25:46.313Z,88.50
2017-07-08T16:28:14.084Z,86.90
2017-07-08T16:30:41.835Z,89.30
2017-07-08T16:33:10.216Z,82.10
2017-07-08T16:35:38.873Z,81.20
2017-07-08T16:38:07.032Z,76.20
2017-07-08T16:40:35.628Z,72.60
2017-07-08T16:43:04.165Z,76.20
2017-07-08T16:45:32.973Z,75.70
2017-07-08T16:48:01.551Z,80.50
2017-07-08T16:50:29.297Z,80.80
2017-07-08T16:52:58.406Z,91.50
2017-07-08T16:55:26.161Z,99.90
2017-07-08T16:57:53.948Z,99.90
2017-07-08T17:03:47.705Z,99.90
2017-07-08T17:06:17.958Z,99.90
2017-07-08T18:45:07.074Z,99.90
2017-07-08T18:47:39.530Z,99.90
2017-07-08T18:50:09.277Z,99.90
2017-07-08T18:52:37.029Z,99.90
2017-07-08T18:55:04.924Z,99.90
2017-07-08T18:57:32.672Z,99.90
2017-07-08T19:00:00.467Z,99.90
2017-07-08T19:02:28.200Z,99.90
2017-07-08T19:04:55.947Z,99.90
2017-07-08T19:07:23.707Z,99.90
2017-07-08T19:09:51.467Z,99.90
2017-07-08T19:12:19.257Z,99.90
2017-07-08T19:14:46.994Z,99.90
2017-07-08T19:17:14.723Z,99.90
2017-07-08T19:19:42.500Z,99.90
2017-07-08T19:22:10.235Z,99.90
2017-07-08T19:24:38.784Z,99.90
2017-07-08T19:27:06.512Z,99.90
2017-07-08T19:29:34.239Z,99.90
2017-07-08T19:32:02.002Z,99.90
2017-07-08T19:34:30.497Z,99.90
2017-07-08T19:36:58.289Z,99.90
2017-07-08T19:39:26.040Z,99.90
2017-07-08T19:41:53.798Z,99.90
2017-07-08T19:44:21.580Z,99.90
2017-07-08T19:46:50.040Z,99.90
2017-07-08T19:49:20.518Z,99.90
2017-07-08T19:51:49.139Z,99.90
2017-07-08T19:54:16.920Z,99.90
2017-07-08T19:56:45.158Z,99.90
2017-07-08T19:59:15.129Z,99.90
2017-07-08T20:01:43.913Z,99.90
2017-07-08T20:04:12.166Z,99.90
2017-07-08T20:06:40.039Z,99.90
2017-07-08T20:11:42.281Z,99.90
2017-07-08T20:14:10.199Z,99.90
2017-07-08T20:16:38.362Z,99.90
2017-07-08T20:19:06.733Z,99.90
2017-07-08T20:21:34.525Z,99.90
2017-07-08T20:24:03.053Z,99.90
2017-07-08T20:26:30.875Z,99.90
2017-07-08T20:28:59.445Z,99.90
2017-07-08T20:31:27.980Z,99.90
2017-07-08T20:33:55.766Z,99.90
2017-07-08T20:36:23.521Z,99.90
2017-07-08T20:38:51.364Z,99.90
2017-07-08T20:41:19.117Z,99.90
2017-07-08T20:43:46.894Z,99.90
2017-07-08T20:46:14.695Z,99.90
2017-07-08T20:48:43.226Z,99.90
2017-07-08T20:51:11.038Z,99.90
2017-07-08T20:53:39.566Z,99.90
2017-07-08T20:56:07.322Z,99.90
2017-07-08T20:58:35.099Z,99.90
2017-07-08T21:01:02.844Z,99.90
2017-07-08T21:03:30.888Z,99.90
2017-07-08T21:05:58.648Z,99.90
2017-07-08T21:08:26.408Z,99.90
2017-07-08T21:10:54.189Z,99.90
2017-07-08T21:13:21.953Z,99.90
2017-07-08T21:15:49.783Z,99.90
2017-07-08T21:18:17.533Z,99.90
2017-07-08T21:20:45.281Z,99.90
2017-07-08T21:23:13.071Z,99.90
2017-07-08T21:25:41.592Z,99.90
2017-07-08T21:28:09.390Z,99.90
2017-07-08T21:30:37.148Z,99.90
2017-07-08T21:33:04.902Z,99.90
2017-07-08T21:35:32.672Z,99.90
2017-07-08T21:38:00.421Z,99.90
2017-07-08T21:40:28.230Z,99.90
2017-07-08T21:42:56.115Z,99.90
2017-07-08T21:45:23.878Z,99.90
2017-07-08T21:47:51.665Z,99.90
2017-07-08T21:50:19.429Z,99.90
2017-07-08T21:52:47.247Z,99.90
2017-07-08T21:55:15.002Z,99.90
2017-07-08T21:57:42.768Z,99.90
2017-07-08T22:00:10.558Z,99.90
2017-07-08T22:05:29.180Z,99.90
2017-07-08T22:07:57.909Z,99.90
2017-07-08T22:10:26.123Z,99.90
2017-07-08T22:12:53.927Z,99.90
2017-07-08T22:15:21.698Z,99.90
2017-07-08T22:17:49.516Z,99.90
2017-07-08T22:20:17.287Z,99.90
2017-07-08T22:22:45.044Z,99.90
2017-07-08T22:25:12.829Z,99.90
2017-07-08T22:27:40.592Z,99.90
2017-07-08T22:30:08.420Z,99.90
2017-07-08T22:32:36.190Z,99.90
2017-07-08T22:35:03.957Z,99.90
2017-07-08T22:37:31.760Z,99.90
2017-07-08T22:39:59.528Z,99.90
2017-07-08T22:42:27.353Z,99.90
2017-07-08T22:44:55.880Z,99.90
2017-07-08T22:47:23.648Z,99.90
2017-07-08T22:49:51.443Z,99.90
2017-07-08T22:52:19.212Z,99.90
2017-07-08T22:54:47.814Z,99.90
2017-07-08T22:57:15.582Z,99.90
2017-07-08T22:59:43.405Z,99.90
2017-07-08T23:02:11.214Z,99.90
2017-07-08T23:04:38.981Z,99.90
2017-07-08T23:07:06.801Z,99.90
2017-07-08T23:09:34.561Z,99.90
2017-07-08T23:12:02.316Z,99.90
2017-07-08T23:14:30.103Z,99.90
2017-07-08T23:16:58.637Z,99.90
2017-07-08T23:19:26.478Z,99.90
2017-07-08T23:21:54.253Z,99.90
2017-07-08T23:24:22.029Z,99.90
2017-07-08T23:26:49.824Z,99.90
2017-07-08T23:29:18.366Z,99.90
2017-07-08T23:31:46.204Z,99.90
2017-07-08T23:34:13.968Z,99.90
2017-07-08T23:36:41.739Z,99.90
2017-07-08T23:39:09.547Z,99.90
2017-07-08T23:41:38.090Z,99.90
2017-07-08T23:44:05.927Z,99.90
2017-07-08T23:46:33.692Z,99.90
2017-07-08T23:49:01.454Z,99.90
2017-07-08T23:51:29.249Z,99.90
2017-07-08T23:53:57.018Z,99.90
2017-07-08T23:56:24.836Z,99.90
2017-07-08T23:58:52.616Z,99.90
